Time;durP1;ratioP1;P1;durP2;ratioP2;P2;SDS_P1;SDS_P2;PMS_P1;PMS_P2;Temp;Humidity;BMP_temperature;BMP_pressure;BME280_temperature;BME280_humidity;BME280_pressure;Samples;Min_cycle;Max_cycle;Signal;HPM_P1;HPM_P2
2022/01/24 00:01:25;;;;;;;15.37;11.07;;;3.80;1.00;;;;;;5090432;28;20201;-78
2022/01/24 00:03:56;;;;;;;14.17;10.43;;;3.60;1.00;;;;;;5089697;28;20696;-78
2022/01/24 00:06:24;;;;;;;15.93;12.10;;;3.70;1.00;;;;;;5090841;28;20210;-78
2022/01/24 00:08:50;;;;;;;18.60;11.50;;;3.60;1.00;;;;;;5091878;28;20229;-78
2022/01/24 00:11:22;;;;;;;15.10;11.43;;;3.80;1.00;;;;;;5093994;28;20201;-78
2022/01/24 00:16:46;;;;;;;12.93;10.13;;;3.70;1.00;;;;;;5093744;28;20208;-78
2022/01/24 00:27:26;;;;;;;17.43;9.97;;;3.80;1.00;;;;;;5093715;28;20213;-79
2022/01/24 00:29:53;;;;;;;13.33;9.40;;;3.70;1.00;;;;;;5092865;28;20290;-79
2022/01/24 00:32:22;;;;;;;14.43;9.37;;;3.80;1.00;;;;;;5093538;28;20730;-79
2022/01/24 00:34:49;;;;;;;15.27;10.37;;;4.00;1.00;;;;;;5093328;28;20288;-79
2022/01/24 00:37:16;;;;;;;11.87;9.30;;;4.00;1.00;;;;;;5093493;28;20206;-80
2022/01/24 00:39:43;;;;;;;14.33;9.60;;;4.10;1.00;;;;;;5093008;28;20204;-80
2022/01/24 00:42:20;;;;;;;11.97;8.37;;;4.10;1.00;;;;;;5093240;28;20228;-79
2022/01/24 00:45:01;;;;;;;13.77;10.40;;;4.20;1.00;;;;;;5092687;28;20604;-78
2022/01/24 00:47:45;;;;;;;13.33;9.10;;;4.10;1.00;;;;;;5093083;28;20568;-80
2022/01/24 00:53:17;;;;;;;12.27;9.93;;;3.60;1.00;;;;;;5069517;28;20197;-78
2022/01/24 00:55:45;;;;;;;16.53;10.90;;;3.40;1.00;;;;;;5092629;28;20576;-79
2022/01/24 00:58:12;;;;;;;15.97;9.20;;;3.40;1.00;;;;;;5093647;28;20238;-82
2022/01/24 01:00:39;;;;;;;17.07;11.00;;;3.70;1.00;;;;;;5093134;28;20205;-76
2022/01/24 01:03:09;;;;;;;13.30;10.20;;;3.60;1.00;;;;;;5093686;28;20209;-83
2022/01/24 01:05:56;;;;;;;15.40;10.60;;;3.40;1.00;;;;;;5094548;28;20201;-84
2022/01/24 01:19:22;;;;;;;12.20;8.67;;;3.80;1.00;;;;;;5092821;28;20348;-83
2022/01/24 01:21:49;;;;;;;12.33;8.20;;;3.90;1.00;;;;;;5092690;28;20210;-83
2022/01/24 01:24:17;;;;;;;13.27;9.70;;;3.90;1.00;;;;;;5092957;28;20205;-83
2022/01/24 01:26:49;;;;;;;12.17;8.30;;;4.00;1.00;;;;;;5092390;28;20205;-83
2022/01/24 01:29:20;;;;;;;13.27;10.60;;;4.30;1.00;;;;;;5092665;28;20252;-82
2022/01/24 01:31:57;;;;;;;11.60;7.90;;;4.30;1.00;;;;;;5092495;28;20197;-82
2022/01/24 01:34:53;;;;;;;10.90;7.53;;;4.40;1.00;;;;;;5093182;28;20201;-83
2022/01/24 01:54:07;;;;;;;13.40;8.77;;;4.60;1.00;;;;;;5092009;28;20598;-80
2022/01/24 01:56:34;;;;;;;11.17;7.17;;;4.70;1.00;;;;;;5092235;28;20221;-80
2022/01/24 01:59:01;;;;;;;9.87;7.60;;;4.70;1.00;;;;;;5092166;28;20234;-85
2022/01/24 02:01:28;;;;;;;12.70;8.60;;;4.60;1.00;;;;;;5091424;28;20205;-83
2022/01/24 02:03:57;;;;;;;9.93;6.50;;;4.60;1.00;;;;;;5091964;28;20205;-84
2022/01/24 02:06:26;;;;;;;13.47;8.27;;;4.70;1.00;;;;;;5092119;28;20240;-84
2022/01/24 02:08:59;;;;;;;10.07;7.57;;;4.60;1.00;;;;;;5092246;28;20361;-85
2022/01/24 02:11:26;;;;;;;8.70;7.37;;;4.50;1.00;;;;;;5092072;28;20209;-86
2022/01/24 02:13:53;;;;;;;10.27;7.50;;;4.50;1.00;;;;;;5091811;28;20198;-86
2022/01/24 02:16:30;;;;;;;9.67;7.43;;;4.40;1.00;;;;;;5092078;28;20228;-85
2022/01/24 02:19:10;;;;;;;9.97;7.27;;;4.20;1.00;;;;;;5091951;28;20330;-85
2022/01/24 02:21:46;;;;;;;11.43;8.03;;;4.10;1.00;;;;;;5092741;28;20232;-78
2022/01/24 02:24:16;;;;;;;11.43;7.23;;;4.20;1.00;;;;;;5091498;28;20582;-79
2022/01/24 02:26:43;;;;;;;13.13;6.90;;;4.20;1.00;;;;;;5091930;28;20202;-82
2022/01/24 02:29:17;;;;;;;11.10;7.57;;;4.20;1.00;;;;;;5091577;28;20229;-82
2022/01/24 02:31:47;;;;;;;10.47;7.60;;;3.90;1.00;;;;;;5090469;28;20201;-81
2022/01/24 02:34:30;;;;;;;13.50;9.27;;;3.80;1.00;;;;;;5091721;28;20205;-81
2022/01/24 02:37:02;;;;;;;10.20;8.07;;;3.70;1.00;;;;;;5091644;28;20209;-83
2022/01/24 02:39:46;;;;;;;12.00;7.70;;;3.60;1.00;;;;;;5091831;28;20209;-83
2022/01/24 02:50:41;;;;;;;14.10;9.63;;;3.60;1.00;;;;;;5091485;28;20236;-81
2022/01/24 02:53:10;;;;;;;10.80;8.80;;;3.60;1.00;;;;;;5090918;28;20692;-81
2022/01/24 02:55:38;;;;;;;9.37;8.27;;;3.60;1.00;;;;;;5091167;28;20622;-79
2022/01/24 02:58:06;;;;;;;10.27;8.47;;;3.40;1.00;;;;;;5091806;28;20205;-81
2022/01/24 03:00:34;;;;;;;13.50;9.47;;;3.70;1.00;;;;;;5091709;28;20209;-82
2022/01/24 03:03:01;;;;;;;13.20;10.00;;;3.60;1.00;;;;;;5091375;28;20258;-86
2022/01/24 03:05:28;;;;;;;12.33;8.87;;;3.70;1.00;;;;;;5091512;28;20227;-86
2022/01/24 03:07:55;;;;;;;14.47;8.73;;;3.50;1.00;;;;;;5091141;28;20603;-85
2022/01/24 03:10:27;;;;;;;13.47;8.70;;;3.30;1.00;;;;;;5072560;28;20237;-86
2022/01/24 03:13:09;;;;;;;12.50;9.63;;;3.30;1.00;;;;;;5071097;28;20206;-85
2022/01/24 03:15:37;;;;;;;13.80;10.00;;;3.70;1.00;;;;;;5071896;28;20205;-86
2022/01/24 03:18:04;;;;;;;13.70;9.33;;;3.70;1.00;;;;;;5071848;28;20206;-85
2022/01/24 03:20:31;;;;;;;13.93;10.17;;;3.70;1.00;;;;;;5071288;28;20545;-85
2022/01/24 03:22:58;;;;;;;12.93;10.23;;;4.00;1.00;;;;;;5070751;28;20665;-85
2022/01/24 03:25:28;;;;;;;13.17;10.07;;;3.80;1.00;;;;;;5071261;28;20206;-86
2022/01/24 03:27:55;;;;;;;11.37;9.53;;;3.60;1.00;;;;;;5070870;28;20267;-83
2022/01/24 03:30:22;;;;;;;14.87;10.23;;;3.70;1.00;;;;;;5070940;28;20237;-80
2022/01/24 03:32:50;;;;;;;13.13;9.60;;;3.40;1.00;;;;;;5070185;28;20235;-81
2022/01/24 03:35:17;;;;;;;14.67;10.90;;;3.40;1.00;;;;;;5070398;28;20202;-81
2022/01/24 03:37:44;;;;;;;16.63;10.03;;;3.80;1.00;;;;;;5070020;28;20259;-81
2022/01/24 03:40:12;;;;;;;12.77;10.10;;;3.90;1.00;;;;;;5070594;28;20202;-80
2022/01/24 03:42:41;;;;;;;12.37;9.70;;;3.70;1.00;;;;;;5070629;28;20198;-78
2022/01/24 03:45:10;;;;;;;17.93;10.97;;;3.60;1.00;;;;;;5074421;28;20209;-79
2022/01/24 03:48:00;;;;;;;16.63;10.73;;;3.40;1.00;;;;;;5074003;28;20553;-78
2022/01/24 03:50:27;;;;;;;12.30;9.10;;;3.30;1.00;;;;;;5074182;28;20586;-78
2022/01/24 03:52:54;;;;;;;11.30;8.43;;;3.10;1.00;;;;;;5073778;28;20275;-80
2022/01/24 03:55:21;;;;;;;16.20;10.63;;;3.20;6.20;;;;;;5074252;28;20202;-80
2022/01/24 03:57:50;;;;;;;18.47;9.90;;;3.00;1.00;;;;;;5073773;28;20198;-81
2022/01/24 04:00:17;;;;;;;13.47;9.90;;;2.90;9.90;;;;;;5074106;28;20202;-81
2022/01/24 04:02:44;;;;;;;13.50;9.33;;;2.90;53.30;;;;;;5073720;28;20210;-81
2022/01/24 04:05:11;;;;;;;15.50;9.33;;;2.80;66.40;;;;;;5073953;28;20252;-81
2022/01/24 04:07:38;;;;;;;12.93;10.73;;;2.80;46.70;;;;;;5074104;28;20197;-79
2022/01/24 04:10:07;;;;;;;14.57;10.77;;;2.70;94.90;;;;;;5074326;28;20291;-83
2022/01/24 04:12:37;;;;;;;16.93;11.53;;;2.70;99.90;;;;;;5075069;28;20209;-82
2022/01/24 04:15:12;;;;;;;15.87;10.50;;;2.70;99.90;;;;;;5074341;28;20260;-78
2022/01/24 04:17:43;;;;;;;14.27;10.33;;;2.60;99.90;;;;;;5073101;28;20213;-77
2022/01/24 04:22:58;;;;;;;13.23;9.77;;;2.70;99.90;;;;;;5073112;28;20197;-77
2022/01/24 04:25:25;;;;;;;13.47;9.70;;;2.70;99.90;;;;;;5073456;28;20218;-79
2022/01/24 04:27:54;;;;;;;15.03;10.63;;;3.00;29.20;;;;;;5073042;28;20256;-79
2022/01/24 04:30:23;;;;;;;15.70;9.20;;;2.90;1.00;;;;;;5073387;28;20230;-80
2022/01/24 04:32:50;;;;;;;12.70;9.40;;;2.90;1.00;;;;;;5072891;28;20259;-78
2022/01/24 04:35:17;;;;;;;14.83;9.23;;;2.80;1.00;;;;;;5073155;28;20252;-80
2022/01/24 04:37:44;;;;;;;10.87;8.60;;;2.90;1.00;;;;;;5072763;28;20323;-78
2022/01/24 04:40:12;;;;;;;12.40;10.07;;;2.90;1.00;;;;;;5073124;28;20232;-79
2022/01/24 04:42:47;;;;;;;15.87;10.53;;;3.00;1.00;;;;;;5072890;28;20749;-78
2022/01/24 04:45:34;;;;;;;16.80;9.57;;;3.20;1.00;;;;;;5073187;28;20224;-79
2022/01/24 04:51:03;;;;;;;13.10;9.77;;;3.10;1.00;;;;;;5072248;28;20241;-79
2022/01/24 04:53:53;;;;;;;17.13;10.23;;;3.30;1.00;;;;;;5072962;28;20624;-82
2022/01/24 04:56:20;;;;;;;15.93;10.17;;;3.20;1.00;;;;;;5072797;28;20206;-84
2022/01/24 04:58:47;;;;;;;17.17;10.07;;;3.00;1.00;;;;;;5073218;28;20279;-84
2022/01/24 05:01:14;;;;;;;11.13;9.23;;;2.90;1.00;;;;;;5073673;28;20260;-82
2022/01/24 05:03:42;;;;;;;16.70;9.57;;;3.10;1.00;;;;;;5073648;28;20206;-83
2022/01/24 05:06:09;;;;;;;15.60;10.27;;;3.10;1.00;;;;;;5073433;28;20255;-83
2022/01/24 05:08:36;;;;;;;14.00;10.57;;;3.00;1.00;;;;;;5072932;28;20677;-79
2022/01/24 05:11:07;;;;;;;14.00;9.17;;;2.90;1.00;;;;;;5072466;28;20226;-79
2022/01/24 05:24:36;;;;;;;16.20;10.37;;;3.10;1.00;;;;;;5073225;28;20726;-83
2022/01/24 05:27:03;;;;;;;17.03;10.17;;;2.90;1.00;;;;;;5073000;28;20331;-85
2022/01/24 05:29:30;;;;;;;12.70;9.63;;;2.80;1.00;;;;;;5072647;28;20206;-83
2022/01/24 05:31:57;;;;;;;17.60;10.80;;;2.60;1.00;;;;;;5072446;28;20728;-84
2022/01/24 05:34:26;;;;;;;14.40;11.03;;;2.60;1.00;;;;;;5072745;28;20202;-83
2022/01/24 05:36:53;;;;;;;12.60;9.87;;;2.50;3.30;;;;;;5072381;28;20267;-83
2022/01/24 05:39:20;;;;;;;18.17;10.47;;;2.50;13.00;;;;;;5072623;28;20202;-84
2022/01/24 05:41:47;;;;;;;15.40;10.40;;;2.40;52.80;;;;;;5072114;28;20213;-83
2022/01/24 05:44:14;;;;;;;17.07;10.40;;;2.40;90.90;;;;;;5072509;28;20259;-83
2022/01/24 05:46:41;;;;;;;16.60;10.20;;;2.30;99.90;;;;;;5071546;28;20202;-81
2022/01/24 05:49:08;;;;;;;17.87;10.73;;;2.30;99.90;;;;;;5071976;28;20210;-82
2022/01/24 05:51:37;;;;;;;15.03;9.80;;;2.30;99.90;;;;;;5072271;28;20237;-81
2022/01/24 05:54:04;;;;;;;18.30;11.73;;;2.30;99.90;;;;;;5072222;28;20670;-81
2022/01/24 05:56:31;;;;;;;12.57;10.10;;;2.30;99.90;;;;;;5071937;28;20206;-81
2022/01/24 05:58:58;;;;;;;16.80;11.03;;;2.30;99.90;;;;;;5071321;28;20206;-82
2022/01/24 06:01:25;;;;;;;17.30;11.17;;;2.20;99.90;;;;;;5071876;28;20210;-81
2022/01/24 06:03:52;;;;;;;18.00;11.00;;;2.30;99.90;;;;;;5071361;28;20259;-81
2022/01/24 06:06:19;;;;;;;13.40;10.57;;;2.50;7.10;;;;;;5071672;28;20260;-81
2022/01/24 06:08:47;;;;;;;18.37;10.53;;;2.40;13.60;;;;;;5071212;28;20202;-82
2022/01/24 06:11:14;;;;;;;15.73;11.00;;;2.90;1.00;;;;;;5071792;28;20263;-82
2022/01/24 06:13:42;;;;;;;12.33;9.40;;;2.80;1.00;;;;;;5071149;28;20198;-83
2022/01/24 06:16:09;;;;;;;14.03;9.73;;;2.70;1.00;;;;;;5071816;28;20263;-83
2022/01/24 06:18:36;;;;;;;13.13;9.17;;;2.60;24.90;;;;;;5072121;28;20205;-82
2022/01/24 06:21:03;;;;;;;18.10;10.80;;;2.50;3.00;;;;;;5071670;28;20206;-80
2022/01/24 06:23:29;;;;;;;16.13;10.13;;;2.40;39.10;;;;;;5071296;28;20214;-80
2022/01/24 06:25:58;;;;;;;16.20;11.37;;;2.40;53.90;;;;;;5070982;28;20259;-80
2022/01/24 06:28:25;;;;;;;14.13;11.23;;;2.30;93.10;;;;;;5071072;28;20210;-80
2022/01/24 06:30:53;;;;;;;14.70;10.50;;;2.30;99.90;;;;;;5081435;28;20709;-80
2022/01/24 06:33:20;;;;;;;12.37;9.50;;;2.20;99.90;;;;;;5081406;28;20673;-80
2022/01/24 06:35:47;;;;;;;14.00;9.80;;;2.20;99.90;;;;;;5084211;28;20212;-81
2022/01/24 06:38:14;;;;;;;12.37;10.70;;;2.20;99.90;;;;;;5091321;28;20263;-81
2022/01/24 06:40:41;;;;;;;17.17;10.37;;;2.20;99.90;;;;;;5090569;28;20632;-82
2022/01/24 06:43:10;;;;;;;14.47;10.60;;;2.20;99.90;;;;;;5091047;28;20220;-82
2022/01/24 06:45:37;;;;;;;15.70;10.40;;;2.20;99.90;;;;;;5091171;28;20210;-80
2022/01/24 06:48:04;;;;;;;14.57;9.67;;;2.30;99.90;;;;;;5089859;28;20296;-82
2022/01/24 06:50:31;;;;;;;15.50;10.50;;;2.30;99.90;;;;;;5091150;28;20229;-82
2022/01/24 06:52:58;;;;;;;13.23;9.40;;;2.70;99.90;;;;;;5090399;28;20209;-82
2022/01/24 06:55:25;;;;;;;16.27;10.33;;;2.70;1.00;;;;;;5090993;28;20205;-82
2022/01/24 06:57:52;;;;;;;14.27;10.53;;;2.90;1.00;;;;;;5090546;28;20266;-82
2022/01/24 07:00:25;;;;;;;17.20;12.43;;;2.70;1.00;;;;;;5090503;28;20258;-82
2022/01/24 07:02:52;;;;;;;18.63;9.57;;;2.70;1.00;;;;;;5090510;28;20241;-82
2022/01/24 07:05:19;;;;;;;19.93;11.47;;;2.80;12.10;;;;;;5090514;28;20624;-81
2022/01/24 07:07:46;;;;;;;13.97;10.27;;;2.80;22.20;;;;;;5090192;28;20201;-81
2022/01/24 07:10:13;;;;;;;18.17;10.87;;;3.20;1.00;;;;;;5090642;28;20745;-82
2022/01/24 07:12:40;;;;;;;21.03;11.63;;;3.10;1.00;;;;;;5090287;28;20258;-82
2022/01/24 07:15:11;;;;;;;15.83;10.57;;;2.90;1.00;;;;;;5091138;28;20286;-81
2022/01/24 07:18:00;;;;;;;16.47;10.37;;;2.80;1.00;;;;;;5091289;28;20288;-83
2022/01/24 07:20:27;;;;;;;13.53;10.23;;;2.90;1.00;;;;;;5095055;28;20274;-83
2022/01/24 07:22:54;;;;;;;14.33;10.93;;;2.80;1.00;;;;;;5094955;28;20258;-81
2022/01/24 07:25:22;;;;;;;17.97;11.47;;;2.90;1.00;;;;;;5091909;28;20254;-82
2022/01/24 07:27:49;;;;;;;15.27;11.37;;;2.90;1.00;;;;;;5094417;28;20252;-85
2022/01/24 07:30:16;;;;;;;13.63;10.20;;;3.20;1.00;;;;;;5081468;28;20687;-78
2022/01/24 07:32:44;;;;;;;19.10;11.87;;;3.40;1.00;;;;;;5093196;28;20202;-79
2022/01/24 07:35:11;;;;;;;13.93;9.93;;;3.30;1.00;;;;;;5094565;28;20251;-79
2022/01/24 07:37:39;;;;;;;15.97;12.37;;;3.50;1.00;;;;;;5094502;28;20198;-79
2022/01/24 07:40:09;;;;;;;16.20;11.57;;;3.40;1.00;;;;;;5094535;28;20210;-80
2022/01/24 07:42:53;;;;;;;13.80;10.80;;;3.50;1.00;;;;;;5094452;28;20201;-79
2022/01/24 07:45:22;;;;;;;15.70;9.87;;;3.60;1.00;;;;;;5093784;28;20233;-77
2022/01/24 07:47:50;;;;;;;15.87;10.43;;;3.70;1.00;;;;;;5091716;28;20251;-78
2022/01/24 07:50:18;;;;;;;15.13;10.83;;;3.70;1.00;;;;;;5073817;28;20206;-80
2022/01/24 07:52:45;;;;;;;17.63;11.77;;;3.90;1.00;;;;;;5082546;28;20206;-79
2022/01/24 07:55:13;;;;;;;17.57;12.40;;;3.90;1.00;;;;;;5084194;28;20212;-76
2022/01/24 07:57:40;;;;;;;18.07;10.80;;;3.80;1.00;;;;;;5091916;28;20201;-77
2022/01/24 08:00:10;;;;;;;19.40;13.00;;;3.90;1.00;;;;;;5075168;28;20206;-76
2022/01/24 08:02:37;;;;;;;19.17;11.73;;;3.80;1.00;;;;;;5074003;28;20205;-76
2022/01/24 08:05:08;;;;;;;17.87;11.67;;;4.10;1.00;;;;;;5076366;28;20213;-76
2022/01/24 08:07:35;;;;;;;16.73;10.97;;;4.20;1.00;;;;;;5077776;28;20243;-77
2022/01/24 08:10:03;;;;;;;13.63;10.30;;;4.80;1.00;;;;;;5074045;28;20218;-76
2022/01/24 08:12:30;;;;;;;14.77;10.57;;;4.80;1.00;;;;;;5073357;28;20245;-76
2022/01/24 08:14:59;;;;;;;21.10;12.40;;;4.70;1.00;;;;;;5073370;28;20205;-76
2022/01/24 08:17:26;;;;;;;17.23;12.57;;;5.10;1.00;;;;;;5075248;28;20206;-76
2022/01/24 08:19:53;;;;;;;14.60;10.20;;;5.30;1.00;;;;;;5073400;28;20283;-76
2022/01/24 08:22:22;;;;;;;13.53;10.13;;;5.60;1.00;;;;;;5087817;28;20201;-76
2022/01/24 08:24:50;;;;;;;13.63;9.83;;;5.30;1.00;;;;;;5093279;28;20274;-76
2022/01/24 08:27:18;;;;;;;19.07;10.87;;;5.00;1.00;;;;;;5093674;28;20209;-76
2022/01/24 08:29:46;;;;;;;14.57;10.10;;;4.90;1.00;;;;;;5093048;28;20201;-76
2022/01/24 08:32:13;;;;;;;17.93;12.00;;;4.90;1.00;;;;;;5091692;28;20278;-77
2022/01/24 08:34:40;;;;;;;14.60;9.90;;;4.90;1.00;;;;;;5082817;28;20205;-75
2022/01/24 08:37:08;;;;;;;18.37;10.37;;;5.20;1.00;;;;;;5078749;28;20198;-79
2022/01/24 08:39:36;;;;;;;16.17;11.50;;;5.40;1.00;;;;;;5080372;28;20210;-80
2022/01/24 08:42:13;;;;;;;15.60;11.23;;;5.50;1.00;;;;;;5093280;28;20288;-73
2022/01/24 08:47:21;;;;;;;16.90;11.27;;;5.70;1.00;;;;;;5043253;28;20214;-72
2022/01/24 08:49:48;;;;;;;15.13;10.67;;;5.60;1.00;;;;;;5077630;28;20202;-77
2022/01/24 08:52:16;;;;;;;13.33;11.00;;;6.20;1.00;;;;;;5076635;28;20233;-77
2022/01/24 08:54:45;;;;;;;14.73;11.33;;;6.40;1.00;;;;;;5072984;28;20206;-77
2022/01/24 08:57:13;;;;;;;15.13;10.57;;;7.00;1.00;;;;;;5072754;28;20255;-78
2022/01/24 08:59:40;;;;;;;13.40;9.63;;;7.30;1.00;;;;;;5078953;28;20263;-77
2022/01/24 09:02:08;;;;;;;19.57;13.47;;;7.60;1.00;;;;;;5073160;28;20214;-77
2022/01/24 09:04:36;;;;;;;15.33;11.23;;;7.90;1.00;;;;;;5073033;28;20206;-77
2022/01/24 09:07:05;;;;;;;11.73;10.23;;;8.80;1.00;;;;;;5074458;28;20674;-78
2022/01/24 09:09:34;;;;;;;11.93;9.37;;;9.00;1.00;;;;;;5084467;28;20297;-78
2022/01/24 09:12:03;;;;;;;15.00;10.13;;;8.70;1.00;;;;;;5091950;28;20237;-80
2022/01/24 09:14:30;;;;;;;13.47;8.73;;;8.90;1.00;;;;;;5085879;28;20198;-80
2022/01/24 09:16:57;;;;;;;12.80;9.43;;;9.50;1.00;;;;;;5092397;28;20210;-81
2022/01/24 09:19:25;;;;;;;12.47;8.47;;;9.80;1.00;;;;;;5092454;28;20618;-80
2022/01/24 09:21:52;;;;;;;9.93;7.93;;;10.00;1.00;;;;;;5091861;28;20586;-80
2022/01/24 09:24:19;;;;;;;11.97;9.50;;;10.40;1.00;;;;;;5081099;28;20689;-80
2022/01/24 09:26:45;;;;;;;13.30;10.13;;;10.30;1.00;;;;;;5091718;28;20213;-80
2022/01/24 09:29:14;;;;;;;14.37;9.07;;;11.70;1.00;;;;;;5091700;28;20251;-81
2022/01/24 09:31:41;;;;;;;22.70;10.87;;;10.70;1.00;;;;;;5091567;28;20290;-80
2022/01/24 09:34:08;;;;;;;12.87;9.40;;;11.20;1.00;;;;;;5091696;28;20206;-80
2022/01/24 09:36:35;;;;;;;10.73;8.63;;;11.90;1.00;;;;;;5091863;28;20209;-80
2022/01/24 09:39:03;;;;;;;11.10;8.40;;;11.20;1.00;;;;;;5080618;28;20629;-80
2022/01/24 09:41:30;;;;;;;12.87;9.03;;;11.30;1.00;;;;;;5091379;28;20220;-79
2022/01/24 09:43:57;;;;;;;10.73;9.10;;;10.30;1.00;;;;;;5082892;28;20209;-79
2022/01/24 09:46:26;;;;;;;15.07;10.17;;;10.20;1.00;;;;;;5087263;28;20209;-80
2022/01/24 09:48:55;;;;;;;13.10;9.37;;;11.20;1.00;;;;;;5089672;28;20213;-80
2022/01/24 09:51:22;;;;;;;12.60;9.40;;;11.10;1.00;;;;;;5071688;28;20234;-80
2022/01/24 09:53:49;;;;;;;12.03;9.67;;;10.60;1.00;;;;;;5070807;28;20206;-80
2022/01/24 09:56:17;;;;;;;11.83;8.13;;;11.40;1.00;;;;;;5071162;28;20259;-80
2022/01/24 09:58:45;;;;;;;9.57;7.50;;;11.30;1.00;;;;;;5071251;28;20666;-85
2022/01/24 10:01:13;;;;;;;14.07;9.70;;;11.70;1.00;;;;;;5071837;28;20202;-81
2022/01/24 10:04:05;;;;;;;10.93;9.03;;;12.00;1.00;;;;;;5088271;28;20215;-80
2022/01/24 10:07:03;;;;;;;20.23;11.57;;;11.60;1.00;;;;;;5087362;28;20205;-80
2022/01/24 10:09:33;;;;;;;15.57;11.05;;;12.30;1.00;;;;;;5080592;28;20218;-77
2022/01/24 10:12:27;;;;;;;14.15;10.82;;;13.20;1.00;;;;;;5071014;28;20233;-79
2022/01/24 10:17:41;;;;;;;13.20;8.32;;;12.00;1.00;;;;;;5070946;28;20570;-77
2022/01/24 10:20:18;;;;;;;10.38;7.43;;;12.90;1.00;;;;;;5073804;28;20255;-76
2022/01/24 10:23:05;;;;;;;12.20;9.20;;;11.70;1.00;;;;;;5069873;28;20210;-77
2022/01/24 10:25:33;;;;;;;14.75;9.40;;;11.60;1.00;;;;;;5071400;28;20203;-77
2022/01/24 10:28:02;;;;;;;10.90;9.15;;;13.40;1.00;;;;;;5070121;28;20255;-77
2022/01/24 10:30:31;;;;;;;11.23;8.30;;;14.00;99.90;;;;;;5074606;28;20281;-77
2022/01/24 10:33:00;;;;;;;9.65;8.18;;;12.90;1.00;;;;;;5070822;28;20242;-80
2022/01/24 10:35:35;;;;;;;13.93;10.05;;;12.00;1.00;;;;;;5070961;28;20205;-80
2022/01/24 10:38:30;;;;;;;16.13;10.10;;;11.00;1.00;;;;;;5073878;28;20205;-80
2022/01/24 10:41:10;;;;;;;11.57;9.10;;;9.60;1.00;;;;;;5071470;28;20564;-80
2022/01/24 10:43:38;;;;;;;16.90;10.10;;;9.40;1.00;;;;;;5081798;28;20666;-80
2022/01/24 10:46:07;;;;;;;14.20;8.60;;;9.30;1.00;;;;;;5091063;28;20677;-80
2022/01/24 10:48:36;;;;;;;14.03;9.10;;;9.30;1.00;;;;;;5081372;28;20202;-80
2022/01/24 10:51:13;;;;;;;10.37;8.20;;;9.60;1.00;;;;;;5088175;28;20292;-80
2022/01/24 10:53:43;;;;;;;10.77;7.93;;;9.50;1.00;;;;;;5084732;28;20212;-78
2022/01/24 10:56:31;;;;;;;14.93;8.43;;;9.50;1.00;;;;;;5090552;28;20258;-78
2022/01/24 10:59:15;;;;;;;14.47;9.37;;;9.70;1.00;;;;;;5084400;28;20275;-78
2022/01/24 11:01:43;;;;;;;11.97;9.17;;;9.50;1.00;;;;;;5084843;28;20270;-78
2022/01/24 11:04:13;;;;;;;10.00;7.97;;;9.30;1.00;;;;;;5090446;28;20726;-77
2022/01/24 11:06:42;;;;;;;11.33;7.07;;;9.50;1.00;;;;;;5090220;28;20209;-78
2022/01/24 11:09:29;;;;;;;11.93;7.77;;;9.50;1.00;;;;;;5087240;28;20677;-78
2022/01/24 11:11:59;;;;;;;10.87;8.30;;;9.60;1.00;;;;;;5082634;28;20278;-78
2022/01/24 11:14:28;;;;;;;10.83;7.63;;;9.80;1.00;;;;;;5072705;28;20206;-77
2022/01/24 11:16:58;;;;;;;9.90;6.90;;;9.60;1.00;;;;;;5069737;28;20210;-76
2022/01/24 11:19:30;;;;;;;13.10;7.47;;;9.50;1.00;;;;;;5087735;28;20205;-77
2022/01/24 11:21:58;;;;;;;8.30;6.47;;;9.90;1.00;;;;;;5076495;28;20745;-80
2022/01/24 11:24:36;;;;;;;11.20;8.00;;;9.70;1.00;;;;;;5090297;28;20216;-80
2022/01/24 11:27:05;;;;;;;15.23;7.37;;;9.90;1.00;;;;;;5091487;28;20206;-84
2022/01/24 11:29:33;;;;;;;8.20;7.23;;;9.90;1.00;;;;;;5090658;28;20205;-78
2022/01/24 11:32:07;;;;;;;11.57;8.63;;;9.80;1.00;;;;;;5089823;28;20823;-78
2022/01/24 11:34:37;;;;;;;10.57;7.40;;;9.80;1.00;;;;;;5088101;28;20205;-77
2022/01/24 11:37:05;;;;;;;10.90;8.37;;;9.90;1.00;;;;;;5078100;28;20206;-77
2022/01/24 11:39:33;;;;;;;10.47;8.40;;;9.90;1.00;;;;;;5081776;28;20564;-80
2022/01/24 11:42:02;;;;;;;12.63;7.67;;;9.90;1.00;;;;;;5089866;28;20297;-77
2022/01/24 11:44:49;;;;;;;10.87;7.53;;;10.00;1.00;;;;;;5090076;28;20205;-76
2022/01/24 11:47:22;;;;;;;10.23;7.20;;;10.10;1.00;;;;;;5090479;28;20202;-76
2022/01/24 11:49:53;;;;;;;10.03;7.03;;;10.10;1.00;;;;;;5090062;28;20304;-77
2022/01/24 11:52:28;;;;;;;11.83;7.50;;;10.00;1.00;;;;;;5090299;28;20605;-78
2022/01/24 11:55:06;;;;;;;12.83;7.47;;;10.00;1.00;;;;;;5089942;28;20211;-79
2022/01/24 11:57:38;;;;;;;14.33;7.63;;;10.20;1.00;;;;;;5090847;28;20197;-77
2022/01/24 12:00:19;;;;;;;9.83;7.70;;;10.20;1.00;;;;;;5090679;28;20205;-79
2022/01/24 12:02:50;;;;;;;9.47;7.80;;;10.40;1.00;;;;;;5089957;28;20626;-76
2022/01/24 12:05:19;;;;;;;10.03;7.77;;;10.40;1.00;;;;;;5092860;28;20804;-76
2022/01/24 12:07:47;;;;;;;10.17;6.80;;;10.30;1.00;;;;;;5093697;28;20292;-76
2022/01/24 12:10:44;;;;;;;9.93;7.03;;;10.40;1.00;;;;;;5094102;28;20750;-78
2022/01/24 12:13:18;;;;;;;10.20;7.67;;;10.40;1.00;;;;;;5094023;28;20676;-78
2022/01/24 12:16:04;;;;;;;12.80;7.13;;;10.30;1.00;;;;;;5093683;28;20213;-78
2022/01/24 12:18:57;;;;;;;10.83;7.10;;;10.30;1.00;;;;;;5093498;28;20209;-80
2022/01/24 12:21:27;;;;;;;8.23;6.63;;;10.50;1.00;;;;;;5093796;28;20255;-80
2022/01/24 12:23:56;;;;;;;9.63;7.53;;;10.70;1.00;;;;;;5093255;28;20262;-79
2022/01/24 12:26:26;;;;;;;8.97;6.37;;;10.80;1.00;;;;;;5085254;28;20213;-81
2022/01/24 12:28:58;;;;;;;9.63;6.80;;;10.90;1.00;;;;;;5072914;28;20676;-82
2022/01/24 12:31:30;;;;;;;9.80;7.03;;;10.70;1.00;;;;;;5073856;28;20573;-81
2022/01/24 12:34:10;;;;;;;8.87;7.37;;;10.50;1.00;;;;;;5073043;28;20291;-82
2022/01/24 12:37:00;;;;;;;9.17;6.13;;;10.70;1.00;;;;;;5073655;28;20723;-81
2022/01/24 12:39:49;;;;;;;9.13;6.60;;;10.80;1.00;;;;;;5074088;28;21023;-81
2022/01/24 12:42:29;;;;;;;13.60;8.00;;;10.80;1.00;;;;;;5093142;28;20218;-81
2022/01/24 12:47:43;;;;;;;10.50;6.60;;;11.00;1.00;;;;;;5085523;28;20234;-81
2022/01/24 12:50:10;;;;;;;8.03;5.90;;;11.20;1.00;;;;;;5092429;28;20209;-81
2022/01/24 12:52:39;;;;;;;6.17;5.57;;;11.30;1.00;;;;;;5089755;28;20255;-80
2022/01/24 12:55:09;;;;;;;12.43;6.53;;;11.30;1.00;;;;;;5090498;28;20232;-81
2022/01/24 12:57:42;;;;;;;7.80;6.37;;;11.30;1.00;;;;;;5090296;28;20206;-80
2022/01/24 13:00:13;;;;;;;8.47;6.37;;;11.40;1.00;;;;;;5092423;28;20209;-81
2022/01/24 13:02:41;;;;;;;7.17;6.43;;;11.40;1.00;;;;;;5092080;28;20209;-81
2022/01/24 13:05:13;;;;;;;9.73;6.17;;;11.40;1.00;;;;;;5081231;28;20214;-81
2022/01/24 13:07:48;;;;;;;9.60;6.27;;;11.30;1.00;;;;;;5077495;28;20266;-82
2022/01/24 13:10:18;;;;;;;6.13;5.53;;;11.30;1.00;;;;;;5076796;28;20209;-81
2022/01/24 13:12:45;;;;;;;9.97;6.63;;;11.30;1.00;;;;;;5091457;28;20232;-78
2022/01/24 13:15:26;;;;;;;10.03;8.03;;;11.40;1.00;;;;;;5092218;28;20205;-81
2022/01/24 13:21:07;;;;;;;8.93;6.10;;;11.50;1.00;;;;;;5088713;28;20204;-79
2022/01/24 13:23:34;;;;;;;8.37;6.10;;;11.40;1.00;;;;;;5087390;28;20577;-79
2022/01/24 13:26:01;;;;;;;10.03;6.77;;;11.50;1.00;;;;;;5083251;28;20205;-81
2022/01/24 13:28:28;;;;;;;7.93;5.93;;;11.80;1.00;;;;;;5092482;28;20214;-83
2022/01/24 13:31:00;;;;;;;8.20;5.87;;;11.50;1.00;;;;;;5089359;28;20210;-83
2022/01/24 13:33:31;;;;;;;7.27;5.47;;;11.70;1.00;;;;;;5084396;28;20782;-84
2022/01/24 13:36:00;;;;;;;7.30;5.90;;;11.80;1.00;;;;;;5086386;28;20224;-84
2022/01/24 13:38:29;;;;;;;8.67;5.37;;;11.70;1.00;;;;;;5092954;28;20209;-83
2022/01/24 13:40:59;;;;;;;7.23;4.93;;;11.70;1.00;;;;;;5092150;28;20210;-83
2022/01/24 13:43:33;;;;;;;12.77;5.90;;;11.50;1.00;;;;;;5074935;28;20217;-83
2022/01/24 13:46:01;;;;;;;6.43;5.00;;;11.60;1.00;;;;;;5080907;28;20556;-83
2022/01/24 13:48:37;;;;;;;7.80;5.97;;;11.80;1.00;;;;;;5092392;28;20580;-81
2022/01/24 13:51:04;;;;;;;7.37;4.60;;;11.80;1.00;;;;;;5079247;28;20209;-83
2022/01/24 13:53:39;;;;;;;7.27;5.40;;;11.80;1.00;;;;;;5080616;28;20294;-82
2022/01/24 13:56:30;;;;;;;15.30;6.20;;;11.80;1.00;;;;;;5082083;28;20263;-84
2022/01/24 13:59:07;;;;;;;6.10;5.10;;;11.80;1.00;;;;;;5074047;28;20224;-83
2022/01/24 14:01:35;;;;;;;6.87;4.63;;;12.00;1.00;;;;;;5091030;28;20677;-82
2022/01/24 14:04:05;;;;;;;6.20;4.53;;;12.00;1.00;;;;;;5091870;28;20309;-84
2022/01/24 14:06:34;;;;;;;6.73;5.37;;;11.80;1.00;;;;;;5091908;28;20669;-82
2022/01/24 14:09:07;;;;;;;6.07;4.80;;;11.80;1.00;;;;;;5090767;28;20217;-82
2022/01/24 14:11:41;;;;;;;5.17;4.67;;;11.90;1.00;;;;;;5077082;28;20236;-83
2022/01/24 14:14:12;;;;;;;7.80;6.20;;;12.00;1.00;;;;;;5078973;28;20621;-82
2022/01/24 14:16:49;;;;;;;6.23;5.20;;;12.00;1.00;;;;;;5086087;28;20214;-83
2022/01/24 14:19:18;;;;;;;8.97;6.03;;;12.00;1.00;;;;;;5084239;28;20209;-82
2022/01/24 14:22:06;;;;;;;7.00;5.83;;;11.90;1.00;;;;;;5091493;28;20250;-84
2022/01/24 14:24:51;;;;;;;7.90;4.87;;;11.90;1.00;;;;;;5074859;28;20634;-82
2022/01/24 14:27:38;;;;;;;6.43;5.40;;;12.00;1.00;;;;;;5081554;28;20201;-82